createdAt,value
2018-07-12T00:02:08.283Z,5.47
2018-07-12T00:04:35.686Z,5.53
2018-07-12T00:07:04.526Z,4.33
2018-07-12T00:09:32.491Z,6.50
2018-07-12T00:11:59.882Z,5.53
2018-07-12T00:14:27.297Z,6.00
2018-07-12T00:16:55.551Z,5.87
2018-07-12T00:19:23.588Z,6.03
2018-07-12T00:21:50.994Z,6.43
2018-07-12T00:24:18.386Z,5.53
2018-07-12T00:26:45.971Z,6.40
2018-07-12T00:29:13.766Z,6.50
2018-07-12T00:31:41.138Z,6.60
2018-07-12T00:34:09.115Z,6.10
2018-07-12T00:36:36.512Z,7.57
2018-07-12T00:39:04.974Z,7.03
2018-07-12T00:41:32.382Z,6.60
2018-07-12T00:43:59.770Z,6.83
2018-07-12T00:46:27.211Z,5.97
2018-07-12T00:48:54.885Z,7.73
2018-07-12T00:51:22.287Z,6.90
2018-07-12T00:53:49.661Z,5.87
2018-07-12T00:56:18.276Z,6.23
2018-07-12T00:58:45.998Z,7.87
2018-07-12T01:01:13.735Z,7.60
2018-07-12T01:03:41.098Z,6.80
2018-07-12T01:06:09.014Z,6.23
2018-07-12T01:08:36.847Z,6.53
2018-07-12T01:11:04.239Z,6.00
2018-07-12T01:13:31.641Z,9.73
2018-07-12T01:15:59.987Z,6.57
2018-07-12T01:18:27.838Z,6.17
2018-07-12T01:20:55.205Z,6.37
2018-07-12T01:23:22.586Z,8.77
2018-07-12T01:25:50.537Z,5.87
2018-07-12T01:28:17.974Z,5.53
2018-07-12T01:30:46.879Z,6.47
2018-07-12T01:33:14.371Z,6.30
2018-07-12T01:35:42.823Z,6.53
2018-07-12T01:38:10.229Z,5.57
2018-07-12T01:40:37.789Z,6.43
2018-07-12T01:43:05.164Z,6.43
2018-07-12T01:45:32.543Z,6.73
2018-07-12T01:47:59.995Z,6.87
2018-07-12T01:50:27.377Z,6.57
2018-07-12T01:52:55.139Z,6.60
2018-07-12T01:55:22.500Z,7.00
2018-07-12T01:57:50.669Z,6.63
2018-07-12T02:00:18.061Z,6.77
2018-07-12T02:02:45.655Z,7.33
2018-07-12T02:05:13.071Z,6.70
2018-07-12T02:07:41.210Z,6.40
2018-07-12T02:10:08.578Z,6.60
2018-07-12T02:12:35.985Z,7.10
2018-07-12T02:15:04.437Z,6.63
2018-07-12T02:17:32.323Z,7.13
2018-07-12T02:20:00.764Z,6.60
2018-07-12T02:22:28.179Z,7.17
2018-07-12T02:24:55.592Z,7.50
2018-07-12T02:27:23.437Z,6.90
2018-07-12T02:29:50.827Z,6.97
2018-07-12T02:32:18.237Z,6.47
2018-07-12T02:34:48.303Z,6.83
2018-07-12T02:37:15.839Z,6.80
2018-07-12T02:39:43.218Z,6.77
2018-07-12T02:42:10.642Z,7.80
2018-07-12T02:44:38.038Z,8.30
2018-07-12T02:47:05.495Z,6.93
2018-07-12T02:49:32.891Z,6.90
2018-07-12T02:52:01.043Z,8.77
2018-07-12T02:54:28.440Z,6.53
2018-07-12T02:56:56.592Z,6.87
2018-07-12T02:59:23.999Z,7.23
2018-07-12T03:01:51.382Z,6.27
2018-07-12T03:04:18.786Z,7.00
2018-07-12T03:06:46.814Z,7.13
2018-07-12T03:09:15.320Z,7.40
2018-07-12T03:11:42.687Z,7.13
2018-07-12T03:14:10.097Z,9.23
2018-07-12T03:16:38.083Z,7.47
2018-07-12T03:19:06.350Z,6.83
2018-07-12T03:21:33.725Z,7.53
2018-07-12T03:24:01.878Z,6.37
2018-07-12T03:26:30.060Z,8.10
2018-07-12T03:28:57.442Z,8.07
2018-07-12T03:31:24.806Z,9.37
2018-07-12T03:33:52.638Z,10.33
2018-07-12T03:36:20.045Z,12.00
2018-07-12T03:38:47.442Z,10.50
2018-07-12T03:41:15.237Z,11.43
2018-07-12T03:43:42.648Z,12.00
2018-07-12T03:46:10.091Z,12.40
2018-07-12T03:48:37.502Z,11.60
2018-07-12T03:51:04.943Z,14.57
2018-07-12T03:53:33.372Z,13.33
2018-07-12T03:56:01.174Z,13.43
2018-07-12T03:58:28.569Z,11.47
2018-07-12T04:00:55.971Z,11.53
2018-07-12T04:03:23.418Z,11.80
2018-07-12T04:05:50.804Z,13.07
2018-07-12T04:08:18.881Z,12.70
2018-07-12T04:10:47.237Z,11.73
2018-07-12T04:13:14.747Z,12.60
2018-07-12T04:15:42.190Z,12.67
2018-07-12T04:18:10.167Z,11.80
2018-07-12T04:20:37.574Z,12.00
2018-07-12T04:23:05.446Z,12.60
2018-07-12T04:25:32.841Z,11.90
2018-07-12T04:28:00.798Z,12.33
2018-07-12T04:30:28.209Z,12.57
2018-07-12T04:32:55.590Z,13.13
2018-07-12T04:35:23.315Z,13.33
2018-07-12T04:37:50.791Z,12.27
2018-07-12T04:40:18.124Z,12.73
2018-07-12T04:42:45.841Z,13.70
2018-07-12T04:45:13.238Z,15.43
2018-07-12T04:47:40.683Z,14.50
2018-07-12T04:50:08.138Z,12.50
2018-07-12T04:52:36.150Z,11.73
2018-07-12T04:55:03.513Z,11.80
2018-07-12T04:57:31.281Z,9.17
2018-07-12T04:59:58.646Z,9.47
2018-07-12T05:02:26.028Z,12.37
2018-07-12T05:04:53.437Z,10.07
2018-07-12T05:07:21.199Z,9.27
2018-07-12T05:09:49.245Z,11.03
2018-07-12T05:12:17.100Z,9.53
2018-07-12T05:14:44.476Z,9.17
2018-07-12T05:17:12.298Z,8.23
2018-07-12T05:19:40.054Z,9.00
2018-07-12T05:22:07.877Z,8.07
2018-07-12T05:24:35.248Z,8.13
2018-07-12T05:27:03.220Z,8.93
2018-07-12T05:29:30.614Z,8.80
2018-07-12T05:31:57.980Z,8.40
2018-07-12T05:34:26.082Z,8.27
2018-07-12T05:36:57.714Z,7.13
2018-07-12T05:39:26.571Z,7.47
2018-07-12T05:41:55.364Z,7.40
2018-07-12T05:44:24.120Z,7.43
2018-07-12T05:46:52.972Z,7.47
2018-07-12T05:49:21.788Z,7.43
2018-07-12T05:51:51.379Z,7.53
2018-07-12T05:54:20.961Z,6.60
2018-07-12T05:56:50.551Z,7.63
2018-07-12T05:59:20.258Z,7.37
2018-07-12T06:02:00.066Z,7.73
2018-07-12T06:04:28.818Z,6.40
2018-07-12T06:06:58.231Z,6.93
2018-07-12T06:09:27.903Z,6.47
2018-07-12T06:11:56.686Z,7.40
2018-07-12T06:14:25.481Z,6.77
2018-07-12T06:16:54.767Z,7.37
2018-07-12T06:19:24.990Z,8.13
2018-07-12T06:21:53.798Z,7.50
2018-07-12T06:24:23.042Z,6.77
2018-07-12T06:26:52.618Z,7.87
2018-07-12T06:29:21.635Z,7.97
2018-07-12T06:31:50.878Z,10.43
2018-07-12T06:34:20.394Z,8.73
2018-07-12T06:36:49.382Z,7.73
2018-07-12T06:39:18.295Z,7.87
2018-07-12T06:41:47.096Z,7.77
2018-07-12T06:44:15.885Z,7.23
2018-07-12T06:46:44.806Z,7.40
2018-07-12T06:49:13.616Z,7.27
2018-07-12T06:51:43.398Z,7.23
2018-07-12T06:54:12.181Z,8.07
2018-07-12T06:56:41.664Z,8.27
2018-07-12T06:59:10.406Z,9.30
2018-07-12T07:01:39.511Z,8.27
2018-07-12T07:04:08.318Z,8.27
2018-07-12T07:06:37.834Z,8.00
2018-07-12T07:09:09.142Z,7.90
2018-07-12T07:11:38.365Z,8.63
2018-07-12T07:14:07.204Z,7.90
2018-07-12T07:16:36.691Z,8.07
2018-07-12T07:19:06.115Z,7.80
2018-07-12T07:21:35.064Z,7.70
2018-07-12T07:24:04.858Z,7.77
2018-07-12T07:26:34.302Z,8.07
2018-07-12T07:29:03.110Z,7.47
2018-07-12T07:31:31.979Z,7.63
2018-07-12T07:34:01.494Z,7.13
2018-07-12T07:36:30.297Z,7.00
2018-07-12T07:38:59.089Z,7.50
2018-07-12T07:41:27.906Z,7.30
2018-07-12T07:43:56.715Z,6.73
2018-07-12T07:46:25.631Z,7.37
2018-07-12T07:48:54.492Z,9.17
2018-07-12T07:51:23.872Z,7.83
2018-07-12T07:53:52.719Z,8.30
2018-07-12T07:56:22.619Z,7.77
2018-07-12T07:58:58.129Z,6.40
2018-07-12T08:01:27.047Z,7.37
2018-07-12T08:03:55.845Z,7.20
2018-07-12T08:06:25.322Z,7.80
2018-07-12T08:08:54.552Z,7.03
2018-07-12T08:11:23.410Z,7.50
2018-07-12T08:13:52.336Z,7.43
2018-07-12T08:16:21.703Z,7.07
2018-07-12T08:18:51.544Z,6.67
2018-07-12T08:21:21.151Z,7.70
2018-07-12T08:23:51.671Z,6.83
2018-07-12T08:26:20.758Z,7.47
2018-07-12T08:28:51.518Z,6.37
2018-07-12T08:31:20.730Z,6.63
2018-07-12T08:33:50.378Z,6.43
2018-07-12T08:36:19.459Z,6.83
2018-07-12T08:38:48.299Z,9.60
2018-07-12T08:41:17.143Z,7.50
2018-07-12T08:43:45.902Z,6.47
2018-07-12T08:46:14.813Z,7.30
2018-07-12T08:48:43.580Z,7.37
2018-07-12T08:51:12.390Z,6.87
2018-07-12T08:53:41.863Z,6.93
2018-07-12T08:56:11.451Z,6.63
2018-07-12T08:58:40.213Z,7.47
2018-07-12T09:01:08.995Z,7.70
2018-07-12T09:03:37.893Z,7.60
2018-07-12T09:06:07.716Z,7.77
2018-07-12T09:08:36.926Z,7.93
2018-07-12T09:11:05.700Z,6.97
2018-07-12T09:13:34.442Z,7.27
2018-07-12T09:16:03.570Z,6.93
2018-07-12T09:18:33.021Z,7.07
2018-07-12T09:21:01.803Z,7.37
2018-07-12T09:23:31.217Z,7.37
2018-07-12T09:25:59.955Z,7.87
2018-07-12T09:28:29.331Z,7.77
2018-07-12T09:30:58.174Z,6.80
2018-07-12T09:33:27.690Z,7.27
2018-07-12T09:35:56.471Z,6.63
2018-07-12T09:38:58.258Z,7.10
2018-07-12T09:41:27.026Z,7.73
2018-07-12T09:43:55.967Z,6.20
2018-07-12T09:46:24.766Z,6.90
2018-07-12T09:48:53.621Z,6.60
2018-07-12T09:51:22.681Z,8.07
2018-07-12T09:53:51.740Z,6.33
2018-07-12T09:56:21.962Z,8.87
2018-07-12T09:58:51.008Z,5.67
2018-07-12T10:01:25.413Z,5.40
2018-07-12T10:03:54.698Z,6.60
2018-07-12T10:06:32.152Z,5.83
2018-07-12T10:09:06.638Z,6.03
2018-07-12T10:11:40.494Z,5.63
2018-07-12T10:15:15.689Z,5.10
2018-07-12T10:17:56.427Z,5.77
2018-07-12T10:20:25.809Z,5.23
2018-07-12T10:22:55.330Z,5.67
2018-07-12T10:25:24.199Z,5.30
2018-07-12T10:27:53.994Z,5.80
2018-07-12T10:30:22.753Z,5.47
2018-07-12T10:32:51.614Z,7.30
2018-07-12T10:35:21.284Z,6.10
2018-07-12T10:37:50.389Z,6.07
2018-07-12T10:40:19.927Z,5.63
2018-07-12T10:42:48.937Z,5.93
2018-07-12T10:45:17.837Z,6.47
2018-07-12T10:47:46.727Z,5.77
2018-07-12T10:50:15.710Z,6.70
2018-07-12T10:52:44.943Z,5.73
2018-07-12T10:55:13.671Z,5.53
2018-07-12T10:57:42.885Z,5.60
2018-07-12T11:00:11.655Z,4.80
2018-07-12T11:02:40.422Z,5.73
2018-07-12T11:05:09.216Z,4.70
2018-07-12T11:07:38.755Z,4.87
2018-07-12T11:10:07.516Z,5.10
2018-07-12T11:12:36.259Z,4.60
2018-07-12T11:15:05.084Z,8.13
2018-07-12T11:17:35.143Z,4.83
2018-07-12T11:20:04.694Z,5.43
2018-07-12T11:22:34.148Z,4.17
2018-07-12T11:25:02.926Z,4.30
2018-07-12T11:27:32.233Z,3.10
2018-07-12T11:30:00.971Z,3.77
2018-07-12T11:32:29.713Z,3.70
2018-07-12T11:34:58.976Z,3.50
2018-07-12T11:37:28.521Z,3.50
2018-07-12T11:39:57.278Z,5.33
2018-07-12T11:42:26.103Z,4.03
2018-07-12T11:44:54.855Z,4.27
2018-07-12T11:47:23.714Z,2.90
2018-07-12T11:49:52.794Z,3.47
2018-07-12T11:52:22.564Z,3.00
2018-07-12T11:54:51.570Z,3.83
2018-07-12T11:57:21.683Z,3.33
2018-07-12T11:59:51.296Z,4.07
2018-07-12T12:02:20.494Z,2.97
2018-07-12T12:04:49.742Z,3.43
2018-07-12T12:07:19.549Z,3.67
2018-07-12T12:09:48.648Z,3.67
2018-07-12T12:12:18.515Z,3.80
2018-07-12T12:14:47.272Z,3.03
2018-07-12T12:17:16.954Z,3.63
2018-07-12T12:19:46.202Z,3.50
2018-07-12T12:22:15.971Z,4.37
2018-07-12T12:24:44.734Z,3.33
2018-07-12T12:27:14.241Z,3.60
2018-07-12T12:29:42.977Z,2.97
2018-07-12T12:32:11.768Z,3.40
2018-07-12T12:34:41.397Z,3.07
2018-07-12T12:37:10.241Z,2.93
2018-07-12T12:39:39.002Z,3.00
2018-07-12T12:42:07.839Z,3.13
2018-07-12T12:44:36.630Z,2.90
2018-07-12T12:47:05.527Z,3.20
2018-07-12T12:49:34.321Z,3.30
2018-07-12T12:52:03.708Z,2.93
2018-07-12T12:54:32.470Z,3.63
2018-07-12T12:57:01.915Z,3.10
2018-07-12T12:59:30.676Z,3.03
2018-07-12T13:01:59.507Z,3.30
2018-07-12T13:04:28.273Z,3.90
2018-07-12T13:06:57.719Z,3.53
2018-07-12T13:09:26.462Z,3.43
2018-07-12T13:11:55.981Z,3.33
2018-07-12T13:14:24.749Z,3.40
2018-07-12T13:16:53.974Z,2.97
2018-07-12T13:19:23.302Z,3.37
2018-07-12T13:21:52.164Z,3.13
2018-07-12T13:24:21.727Z,3.20
2018-07-12T13:26:51.420Z,2.87
2018-07-12T13:29:20.792Z,3.63
2018-07-12T13:31:49.833Z,2.90
2018-07-12T13:34:19.782Z,3.40
2018-07-12T13:36:48.833Z,2.90
2018-07-12T13:39:18.210Z,3.63
2018-07-12T13:41:47.043Z,3.27
2018-07-12T13:44:19.824Z,4.97
2018-07-12T13:46:49.788Z,2.90
2018-07-12T13:49:18.862Z,3.03
2018-07-12T13:51:49.906Z,3.20
2018-07-12T13:54:19.489Z,3.83
2018-07-12T13:56:49.833Z,3.43
2018-07-12T13:59:18.743Z,3.43
2018-07-12T14:01:47.647Z,3.50
2018-07-12T14:04:16.500Z,3.90
2018-07-12T14:06:45.990Z,3.40
2018-07-12T14:09:14.739Z,3.83
2018-07-12T14:11:43.464Z,5.90
2018-07-12T14:14:12.914Z,3.60
2018-07-12T14:16:42.689Z,4.00
2018-07-12T14:19:12.260Z,3.80
2018-07-12T14:21:41.070Z,3.53
2018-07-12T14:24:10.567Z,5.43
2018-07-12T14:26:40.112Z,3.53
2018-07-12T14:29:08.955Z,3.87
2018-07-12T14:31:37.711Z,3.50
2018-07-12T14:34:07.560Z,4.17
2018-07-12T14:36:36.316Z,3.70
2018-07-12T14:39:06.842Z,3.90
2018-07-12T14:41:35.685Z,3.20
2018-07-12T14:44:04.467Z,3.40
2018-07-12T14:46:33.362Z,3.70
2018-07-12T14:49:02.358Z,3.90
2018-07-12T14:51:32.414Z,3.53
2018-07-12T14:54:01.222Z,4.30
2018-07-12T14:56:32.013Z,3.63
2018-07-12T14:59:03.588Z,3.30
2018-07-12T15:01:32.436Z,3.20
2018-07-12T15:04:01.188Z,3.60
2018-07-12T15:06:30.559Z,3.53
2018-07-12T15:08:59.377Z,3.47
2018-07-12T15:11:28.158Z,3.60
2018-07-12T15:13:58.067Z,3.40
2018-07-12T15:16:27.308Z,3.50
2018-07-12T15:18:56.736Z,3.70
2018-07-12T15:21:25.511Z,3.63
2018-07-12T15:23:54.981Z,4.90
2018-07-12T15:26:23.748Z,3.13
2018-07-12T15:28:52.992Z,3.23
2018-07-12T15:31:21.731Z,3.73
2018-07-12T15:33:51.319Z,3.43
2018-07-12T15:36:20.558Z,3.30
2018-07-12T15:38:50.364Z,3.80
2018-07-12T15:41:19.571Z,3.47
2018-07-12T15:43:48.762Z,4.03
2018-07-12T15:46:17.663Z,3.20
2018-07-12T15:48:46.515Z,3.13
2018-07-12T15:51:15.324Z,3.03
2018-07-12T15:53:45.027Z,3.50
2018-07-12T15:56:14.414Z,3.20
2018-07-12T15:58:43.276Z,3.27
2018-07-12T16:01:13.299Z,2.90
2018-07-12T16:03:42.085Z,3.20
2018-07-12T16:06:11.427Z,3.00
2018-07-12T16:08:40.190Z,3.40
2018-07-12T16:11:08.956Z,3.17
2018-07-12T16:13:38.272Z,4.07
2018-07-12T16:16:07.690Z,3.07
2018-07-12T16:18:37.298Z,3.00
2018-07-12T16:21:06.192Z,2.80
2018-07-12T16:23:35.549Z,3.20
2018-07-12T16:26:04.338Z,3.73
2018-07-12T16:28:33.586Z,3.43
2018-07-12T16:31:02.683Z,3.07
2018-07-12T16:33:32.166Z,3.03
2018-07-12T16:36:00.977Z,2.60
2018-07-12T16:38:29.766Z,3.17
2018-07-12T16:40:58.611Z,3.10
2018-07-12T16:43:27.457Z,2.90
2018-07-12T16:45:56.337Z,3.20
2018-07-12T16:48:25.546Z,3.23
2018-07-12T16:50:54.350Z,2.60
2018-07-12T16:53:24.296Z,3.10
2018-07-12T16:55:54.138Z,3.03
2018-07-12T16:58:22.965Z,3.17
2018-07-12T17:00:51.765Z,2.77
2018-07-12T17:03:21.423Z,2.73
2018-07-12T17:05:51.568Z,2.60
2018-07-12T17:08:20.587Z,3.50
2018-07-12T17:10:49.606Z,2.87
2018-07-12T17:13:19.676Z,2.80
2018-07-12T17:15:48.674Z,2.37
2018-07-12T17:18:17.579Z,3.43
2018-07-12T17:20:46.417Z,5.13
2018-07-12T17:23:16.010Z,2.53
2018-07-12T17:25:44.819Z,3.00
2018-07-12T17:28:14.509Z,2.37
2018-07-12T17:30:43.315Z,2.40
2018-07-12T17:33:12.150Z,3.00
2018-07-12T17:35:42.440Z,4.40
2018-07-12T17:38:11.215Z,3.00
2018-07-12T17:40:39.969Z,3.00
2018-07-12T17:43:08.822Z,3.13
2018-07-12T17:45:37.617Z,3.10
2018-07-12T17:48:06.616Z,2.83
2018-07-12T17:50:35.449Z,4.10
2018-07-12T17:53:05.376Z,2.80
2018-07-12T17:55:34.643Z,2.80
2018-07-12T17:58:03.406Z,2.97
2018-07-12T18:00:32.250Z,2.70
2018-07-12T18:03:01.587Z,2.70
2018-07-12T18:05:30.508Z,2.90
2018-07-12T18:07:59.906Z,2.67
2018-07-12T18:10:28.730Z,3.10
2018-07-12T18:12:58.542Z,2.90
2018-07-12T18:15:27.372Z,3.10
2018-07-12T18:17:56.167Z,3.10
2018-07-12T18:20:24.989Z,3.10
2018-07-12T18:22:55.139Z,2.77
2018-07-12T18:25:24.031Z,2.60
2018-07-12T18:27:53.398Z,3.20
2018-07-12T18:30:22.222Z,4.53
2018-07-12T18:32:51.098Z,2.80
2018-07-12T18:35:21.428Z,2.40
2018-07-12T18:37:50.413Z,2.80
2018-07-12T18:40:19.595Z,2.70
2018-07-12T18:42:48.605Z,2.50
2018-07-12T18:45:17.517Z,2.87
2018-07-12T18:47:46.468Z,2.20
2018-07-12T18:50:15.283Z,3.67
2018-07-12T18:52:44.818Z,3.40
2018-07-12T18:55:14.027Z,2.77
2018-07-12T18:57:43.486Z,2.70
2018-07-12T19:00:12.239Z,2.90
2018-07-12T19:02:41.581Z,2.73
2018-07-12T19:05:10.385Z,2.57
2018-07-12T19:07:39.709Z,3.20
2018-07-12T19:10:08.478Z,2.90
2018-07-12T19:12:37.739Z,3.00
2018-07-12T19:15:06.613Z,2.73
2018-07-12T19:17:35.325Z,3.27
2018-07-12T19:20:04.451Z,2.47
2018-07-12T19:22:33.872Z,3.30
2018-07-12T19:25:02.611Z,3.10
2018-07-12T19:27:31.794Z,4.37
2018-07-12T19:30:00.533Z,3.53
2018-07-12T19:32:29.297Z,3.40
2018-07-12T19:34:58.771Z,3.03
2018-07-12T19:37:27.479Z,5.83
2018-07-12T19:39:56.230Z,4.03
2018-07-12T19:42:25.048Z,4.03
2018-07-12T19:44:53.795Z,3.90
2018-07-12T19:47:22.754Z,4.33
2018-07-12T19:49:52.056Z,4.00
2018-07-12T19:52:21.806Z,4.00
2018-07-12T19:54:51.462Z,4.40
2018-07-12T19:57:21.362Z,4.23
2018-07-12T19:59:50.414Z,3.47
2018-07-12T20:02:20.606Z,4.10
2018-07-12T20:04:50.306Z,3.73
2018-07-12T20:07:20.212Z,4.10
2018-07-12T20:09:49.355Z,3.70
2018-07-12T20:12:19.214Z,4.03
2018-07-12T20:14:48.283Z,4.90
2018-07-12T20:17:17.094Z,5.73
2018-07-12T20:19:45.858Z,4.03
2018-07-12T20:22:15.066Z,4.40
2018-07-12T20:24:43.777Z,4.37
2018-07-12T20:27:13.775Z,4.50
2018-07-12T20:29:42.560Z,4.80
2018-07-12T20:32:11.322Z,5.47
2018-07-12T20:34:40.770Z,5.10
2018-07-12T20:37:09.592Z,4.87
2018-07-12T20:39:38.320Z,4.70
2018-07-12T20:42:07.090Z,4.57
2018-07-12T20:44:35.847Z,4.67
2018-07-12T20:47:04.686Z,5.30
2018-07-12T20:49:33.648Z,5.57
2018-07-12T20:52:04.206Z,5.27
2018-07-12T20:54:33.799Z,4.77
2018-07-12T20:57:03.323Z,5.50
2018-07-12T20:59:32.103Z,5.00
2018-07-12T21:02:00.879Z,5.77
2018-07-12T21:04:30.474Z,4.80
2018-07-12T21:06:59.642Z,5.70
2018-07-12T21:09:28.373Z,4.70
2018-07-12T21:11:57.134Z,6.37
2018-07-12T21:14:25.910Z,5.37
2018-07-12T21:16:54.664Z,5.03
2018-07-12T21:19:23.527Z,5.23
2018-07-12T21:21:52.520Z,5.00
2018-07-12T21:24:21.972Z,4.67
2018-07-12T21:26:51.564Z,5.37
2018-07-12T21:29:20.694Z,6.27
2018-07-12T21:31:49.834Z,5.90
2018-07-12T21:34:20.684Z,4.53
2018-07-12T21:36:49.904Z,5.20
2018-07-12T21:39:20.308Z,5.07
2018-07-12T21:41:49.791Z,5.03
2018-07-12T21:44:19.659Z,5.33
2018-07-12T21:46:48.948Z,6.87
2018-07-12T21:49:18.115Z,5.10
2018-07-12T21:51:49.091Z,5.43
2018-07-12T21:54:18.085Z,5.00
2018-07-12T21:56:49.199Z,4.70
2018-07-12T21:59:18.231Z,5.53
2018-07-12T22:01:47.061Z,5.13
2018-07-12T22:04:16.412Z,6.00
2018-07-12T22:06:58.220Z,5.87
2018-07-12T22:09:27.046Z,5.83
2018-07-12T22:11:55.845Z,6.33
2018-07-12T22:14:24.679Z,5.03
2018-07-12T22:16:53.541Z,8.77
2018-07-12T22:19:22.330Z,6.83
2018-07-12T22:21:52.061Z,9.63
2018-07-12T22:24:21.786Z,7.53
2018-07-12T22:26:51.598Z,5.40
2018-07-12T22:29:21.186Z,7.83
2018-07-12T22:31:50.708Z,8.93
2018-07-12T22:34:20.632Z,5.43
2018-07-12T22:36:50.146Z,6.90
2018-07-12T22:39:19.086Z,8.63
2018-07-12T22:41:47.963Z,7.30
2018-07-12T22:44:16.702Z,7.20
2018-07-12T22:46:45.566Z,10.70
2018-07-12T22:49:15.432Z,7.73
2018-07-12T22:51:45.363Z,7.43
2018-07-12T22:54:14.095Z,7.10
2018-07-12T22:56:43.756Z,6.93
2018-07-12T22:59:12.611Z,6.20
2018-07-12T23:01:41.368Z,6.40
2018-07-12T23:04:10.735Z,6.33
2018-07-12T23:06:40.165Z,6.67
2018-07-12T23:09:08.907Z,6.97
2018-07-12T23:11:37.650Z,5.60
2018-07-12T23:14:06.446Z,6.57
2018-07-12T23:16:35.292Z,6.60
2018-07-12T23:19:04.166Z,6.47
2018-07-12T23:21:32.965Z,6.77
2018-07-12T23:24:02.964Z,6.23
2018-07-12T23:26:32.666Z,7.90
2018-07-12T23:29:01.384Z,6.43
2018-07-12T23:31:30.137Z,5.77
2018-07-12T23:33:59.640Z,6.17
2018-07-12T23:36:28.380Z,5.30
2018-07-12T23:38:57.122Z,7.00
2018-07-12T23:41:25.910Z,6.30
2018-07-12T23:43:54.646Z,6.13
2018-07-12T23:46:23.493Z,5.93
2018-07-12T23:48:52.424Z,7.70
2018-07-12T23:51:21.451Z,7.63
2018-07-12T23:53:51.058Z,6.57
2018-07-12T23:56:22.100Z,6.70
2018-07-12T23:58:51.814Z,6.87
